sensor_id;sensor_type;location;lat;lon;timestamp;P1;durP1;ratioP1;P2;durP2;ratioP2
68509;SDS011;55512;50.102;19.958;2022-07-23T00:01:28;12.00;;;9.30;;
68509;SDS011;55512;50.102;19.958;2022-07-23T00:03:55;13.60;;;9.40;;
68509;SDS011;55512;50.102;19.958;2022-07-23T00:06:21;13.90;;;9.70;;
68509;SDS011;55512;50.102;19.958;2022-07-23T00:08:47;12.80;;;9.30;;
68509;SDS011;55512;50.102;19.958;2022-07-23T00:11:13;13.40;;;10.40;;
68509;SDS011;55512;50.102;19.958;2022-07-23T00:13:39;14.00;;;9.20;;
68509;SDS011;55512;50.102;19.958;2022-07-23T00:16:05;13.10;;;9.00;;
68509;SDS011;55512;50.102;19.958;2022-07-23T00:18:31;14.20;;;10.20;;
68509;SDS011;55512;50.102;19.958;2022-07-23T00:20:57;14.10;;;8.80;;
68509;SDS011;55512;50.102;19.958;2022-07-23T00:23:22;11.80;;;9.00;;
68509;SDS011;55512;50.102;19.958;2022-07-23T00:25:50;13.00;;;8.50;;
68509;SDS011;55512;50.102;19.958;2022-07-23T00:28:17;11.70;;;9.20;;
68509;SDS011;55512;50.102;19.958;2022-07-23T00:30:44;12.30;;;8.80;;
68509;SDS011;55512;50.102;19.958;2022-07-23T00:33:10;11.40;;;8.50;;
68509;SDS011;55512;50.102;19.958;2022-07-23T00:35:38;12.00;;;9.00;;
68509;SDS011;55512;50.102;19.958;2022-07-23T00:38:07;11.50;;;8.00;;
68509;SDS011;55512;50.102;19.958;2022-07-23T00:40:35;11.70;;;9.00;;
68509;SDS011;55512;50.102;19.958;2022-07-23T00:43:02;12.10;;;9.30;;
68509;SDS011;55512;50.102;19.958;2022-07-23T00:45:29;11.30;;;8.10;;
68509;SDS011;55512;50.102;19.958;2022-07-23T00:47:55;12.60;;;8.50;;
68509;SDS011;55512;50.102;19.958;2022-07-23T00:50:21;12.10;;;8.40;;
68509;SDS011;55512;50.102;19.958;2022-07-23T00:52:46;11.40;;;7.80;;
68509;SDS011;55512;50.102;19.958;2022-07-23T00:55:14;11.10;;;8.70;;
68509;SDS011;55512;50.102;19.958;2022-07-23T00:57:41;10.70;;;8.20;;
68509;SDS011;55512;50.102;19.958;2022-07-23T01:00:10;11.50;;;8.30;;
68509;SDS011;55512;50.102;19.958;2022-07-23T01:02:40;11.60;;;8.70;;
68509;SDS011;55512;50.102;19.958;2022-07-23T01:05:08;11.90;;;8.30;;
68509;SDS011;55512;50.102;19.958;2022-07-23T01:07:34;11.50;;;8.50;;
68509;SDS011;55512;50.102;19.958;2022-07-23T01:10:01;12.40;;;8.80;;
68509;SDS011;55512;50.102;19.958;2022-07-23T01:12:27;11.50;;;8.10;;
68509;SDS011;55512;50.102;19.958;2022-07-23T01:14:54;12.50;;;8.40;;
68509;SDS011;55512;50.102;19.958;2022-07-23T01:17:21;11.70;;;8.60;;
68509;SDS011;55512;50.102;19.958;2022-07-23T01:19:47;13.00;;;8.40;;
68509;SDS011;55512;50.102;19.958;2022-07-23T01:22:13;12.90;;;8.50;;
68509;SDS011;55512;50.102;19.958;2022-07-23T01:24:42;10.20;;;7.30;;
68509;SDS011;55512;50.102;19.958;2022-07-23T01:27:07;11.90;;;8.00;;
68509;SDS011;55512;50.102;19.958;2022-07-23T01:29:33;14.50;;;8.80;;
68509;SDS011;55512;50.102;19.958;2022-07-23T01:31:58;11.90;;;7.80;;
68509;SDS011;55512;50.102;19.958;2022-07-23T01:34:24;11.70;;;8.80;;
68509;SDS011;55512;50.102;19.958;2022-07-23T01:36:49;11.20;;;8.40;;
68509;SDS011;55512;50.102;19.958;2022-07-23T01:39:15;12.50;;;8.30;;
68509;SDS011;55512;50.102;19.958;2022-07-23T01:41:40;12.50;;;8.60;;
68509;SDS011;55512;50.102;19.958;2022-07-23T01:44:06;10.80;;;7.80;;
68509;SDS011;55512;50.102;19.958;2022-07-23T01:46:32;11.90;;;8.50;;
68509;SDS011;55512;50.102;19.958;2022-07-23T01:48:58;12.40;;;8.60;;
68509;SDS011;55512;50.102;19.958;2022-07-23T01:51:23;12.10;;;9.00;;
68509;SDS011;55512;50.102;19.958;2022-07-23T01:53:49;12.10;;;8.50;;
68509;SDS011;55512;50.102;19.958;2022-07-23T01:56:15;11.80;;;8.40;;
68509;SDS011;55512;50.102;19.958;2022-07-23T01:58:41;12.20;;;8.80;;
68509;SDS011;55512;50.102;19.958;2022-07-23T02:01:06;12.20;;;8.50;;
68509;SDS011;55512;50.102;19.958;2022-07-23T02:03:32;11.50;;;8.70;;
68509;SDS011;55512;50.102;19.958;2022-07-23T02:05:57;10.50;;;7.90;;
68509;SDS011;55512;50.102;19.958;2022-07-23T02:08:23;11.80;;;8.50;;
68509;SDS011;55512;50.102;19.958;2022-07-23T02:10:48;11.50;;;9.10;;
68509;SDS011;55512;50.102;19.958;2022-07-23T02:13:16;13.30;;;9.10;;
68509;SDS011;55512;50.102;19.958;2022-07-23T02:15:42;11.30;;;8.70;;
68509;SDS011;55512;50.102;19.958;2022-07-23T02:18:08;13.10;;;9.30;;
68509;SDS011;55512;50.102;19.958;2022-07-23T02:20:34;13.20;;;8.80;;
68509;SDS011;55512;50.102;19.958;2022-07-23T02:23:00;14.60;;;9.30;;
68509;SDS011;55512;50.102;19.958;2022-07-23T02:25:25;14.50;;;9.50;;
68509;SDS011;55512;50.102;19.958;2022-07-23T02:27:51;12.50;;;8.50;;
68509;SDS011;55512;50.102;19.958;2022-07-23T02:30:16;12.10;;;9.10;;
68509;SDS011;55512;50.102;19.958;2022-07-23T02:32:42;14.10;;;9.50;;
68509;SDS011;55512;50.102;19.958;2022-07-23T02:35:07;12.30;;;9.10;;
68509;SDS011;55512;50.102;19.958;2022-07-23T02:37:33;13.20;;;9.40;;
68509;SDS011;55512;50.102;19.958;2022-07-23T02:39:58;12.70;;;8.80;;
68509;SDS011;55512;50.102;19.958;2022-07-23T02:42:24;13.60;;;9.10;;
68509;SDS011;55512;50.102;19.958;2022-07-23T02:44:51;12.00;;;9.20;;
68509;SDS011;55512;50.102;19.958;2022-07-23T02:47:17;13.70;;;10.50;;
68509;SDS011;55512;50.102;19.958;2022-07-23T02:49:42;13.60;;;10.20;;
68509;SDS011;55512;50.102;19.958;2022-07-23T02:52:08;14.10;;;9.30;;
68509;SDS011;55512;50.102;19.958;2022-07-23T02:54:36;13.10;;;9.50;;
68509;SDS011;55512;50.102;19.958;2022-07-23T02:57:02;12.80;;;8.90;;
68509;SDS011;55512;50.102;19.958;2022-07-23T02:59:29;11.50;;;9.10;;
68509;SDS011;55512;50.102;19.958;2022-07-23T03:01:54;13.80;;;9.20;;
68509;SDS011;55512;50.102;19.958;2022-07-23T03:04:19;13.00;;;9.30;;
68509;SDS011;55512;50.102;19.958;2022-07-23T03:06:45;12.60;;;9.50;;
68509;SDS011;55512;50.102;19.958;2022-07-23T03:09:10;13.70;;;9.70;;
68509;SDS011;55512;50.102;19.958;2022-07-23T03:11:36;13.30;;;9.40;;
68509;SDS011;55512;50.102;19.958;2022-07-23T03:14:01;13.30;;;9.80;;
68509;SDS011;55512;50.102;19.958;2022-07-23T03:16:27;11.40;;;8.60;;
68509;SDS011;55512;50.102;19.958;2022-07-23T03:18:53;13.50;;;9.40;;
68509;SDS011;55512;50.102;19.958;2022-07-23T03:21:18;12.20;;;8.50;;
68509;SDS011;55512;50.102;19.958;2022-07-23T03:23:44;13.00;;;8.90;;
68509;SDS011;55512;50.102;19.958;2022-07-23T03:26:09;12.50;;;9.00;;
68509;SDS011;55512;50.102;19.958;2022-07-23T03:28:35;13.80;;;9.00;;
68509;SDS011;55512;50.102;19.958;2022-07-23T03:31:00;12.50;;;9.60;;
68509;SDS011;55512;50.102;19.958;2022-07-23T03:33:26;13.70;;;8.80;;
68509;SDS011;55512;50.102;19.958;2022-07-23T03:35:51;13.00;;;9.10;;
68509;SDS011;55512;50.102;19.958;2022-07-23T03:38:17;14.70;;;9.80;;
68509;SDS011;55512;50.102;19.958;2022-07-23T03:40:42;12.80;;;9.60;;
68509;SDS011;55512;50.102;19.958;2022-07-23T03:43:08;12.10;;;8.70;;
68509;SDS011;55512;50.102;19.958;2022-07-23T03:45:33;12.40;;;8.70;;
68509;SDS011;55512;50.102;19.958;2022-07-23T03:47:59;12.40;;;9.00;;
68509;SDS011;55512;50.102;19.958;2022-07-23T03:50:25;11.80;;;8.30;;
68509;SDS011;55512;50.102;19.958;2022-07-23T03:52:51;13.20;;;9.10;;
68509;SDS011;55512;50.102;19.958;2022-07-23T03:55:17;10.80;;;8.30;;
68509;SDS011;55512;50.102;19.958;2022-07-23T03:57:43;12.60;;;8.30;;
68509;SDS011;55512;50.102;19.958;2022-07-23T04:00:10;11.50;;;7.70;;
68509;SDS011;55512;50.102;19.958;2022-07-23T04:02:37;12.60;;;8.00;;
68509;SDS011;55512;50.102;19.958;2022-07-23T04:05:03;11.70;;;8.30;;
68509;SDS011;55512;50.102;19.958;2022-07-23T04:07:29;10.90;;;7.90;;
68509;SDS011;55512;50.102;19.958;2022-07-23T04:09:55;14.20;;;8.90;;
68509;SDS011;55512;50.102;19.958;2022-07-23T04:12:20;14.40;;;9.10;;
68509;SDS011;55512;50.102;19.958;2022-07-23T04:14:46;12.90;;;8.10;;
68509;SDS011;55512;50.102;19.958;2022-07-23T04:17:12;12.80;;;9.00;;
68509;SDS011;55512;50.102;19.958;2022-07-23T04:19:37;12.10;;;8.80;;
68509;SDS011;55512;50.102;19.958;2022-07-23T04:22:10;11.30;;;8.40;;
68509;SDS011;55512;50.102;19.958;2022-07-23T04:24:37;11.30;;;8.00;;
68509;SDS011;55512;50.102;19.958;2022-07-23T04:27:04;11.10;;;8.00;;
68509;SDS011;55512;50.102;19.958;2022-07-23T04:29:29;14.30;;;8.80;;
68509;SDS011;55512;50.102;19.958;2022-07-23T04:31:55;14.40;;;8.70;;
68509;SDS011;55512;50.102;19.958;2022-07-23T04:34:21;14.00;;;8.20;;
68509;SDS011;55512;50.102;19.958;2022-07-23T04:36:47;13.90;;;9.40;;
68509;SDS011;55512;50.102;19.958;2022-07-23T04:39:13;12.20;;;8.90;;
68509;SDS011;55512;50.102;19.958;2022-07-23T04:41:39;11.80;;;8.30;;
68509;SDS011;55512;50.102;19.958;2022-07-23T04:44:04;14.40;;;9.00;;
68509;SDS011;55512;50.102;19.958;2022-07-23T04:46:30;12.40;;;9.00;;
68509;SDS011;55512;50.102;19.958;2022-07-23T04:48:56;12.20;;;8.60;;
68509;SDS011;55512;50.102;19.958;2022-07-23T04:51:21;12.70;;;8.90;;
68509;SDS011;55512;50.102;19.958;2022-07-23T04:53:46;14.00;;;8.70;;
68509;SDS011;55512;50.102;19.958;2022-07-23T04:56:12;12.80;;;8.90;;
68509;SDS011;55512;50.102;19.958;2022-07-23T04:58:38;14.10;;;9.80;;
68509;SDS011;55512;50.102;19.958;2022-07-23T05:01:04;14.60;;;9.60;;
68509;SDS011;55512;50.102;19.958;2022-07-23T05:03:29;14.50;;;9.70;;
68509;SDS011;55512;50.102;19.958;2022-07-23T05:05:55;13.60;;;9.70;;
68509;SDS011;55512;50.102;19.958;2022-07-23T05:08:21;14.40;;;10.70;;
68509;SDS011;55512;50.102;19.958;2022-07-23T05:10:47;14.00;;;9.60;;
68509;SDS011;55512;50.102;19.958;2022-07-23T05:13:16;13.30;;;10.20;;
68509;SDS011;55512;50.102;19.958;2022-07-23T05:15:43;13.00;;;9.90;;
68509;SDS011;55512;50.102;19.958;2022-07-23T05:18:10;14.70;;;10.10;;
68509;SDS011;55512;50.102;19.958;2022-07-23T05:20:35;15.80;;;11.20;;
68509;SDS011;55512;50.102;19.958;2022-07-23T05:23:01;13.00;;;9.50;;
68509;SDS011;55512;50.102;19.958;2022-07-23T05:25:27;16.40;;;10.00;;
68509;SDS011;55512;50.102;19.958;2022-07-23T05:27:53;15.50;;;11.00;;
68509;SDS011;55512;50.102;19.958;2022-07-23T05:30:18;13.10;;;9.90;;
68509;SDS011;55512;50.102;19.958;2022-07-23T05:32:44;13.70;;;9.80;;
68509;SDS011;55512;50.102;19.958;2022-07-23T05:35:10;14.00;;;9.80;;
68509;SDS011;55512;50.102;19.958;2022-07-23T05:37:36;16.10;;;10.90;;
68509;SDS011;55512;50.102;19.958;2022-07-23T05:40:03;14.20;;;10.70;;
68509;SDS011;55512;50.102;19.958;2022-07-23T05:42:37;12.70;;;10.30;;
68509;SDS011;55512;50.102;19.958;2022-07-23T05:45:05;14.00;;;11.00;;
68509;SDS011;55512;50.102;19.958;2022-07-23T05:47:44;14.20;;;11.00;;
68509;SDS011;55512;50.102;19.958;2022-07-23T05:50:13;13.40;;;10.60;;
68509;SDS011;55512;50.102;19.958;2022-07-23T05:52:39;14.80;;;10.80;;
68509;SDS011;55512;50.102;19.958;2022-07-23T05:55:06;14.40;;;10.30;;
68509;SDS011;55512;50.102;19.958;2022-07-23T05:57:33;14.00;;;10.90;;
68509;SDS011;55512;50.102;19.958;2022-07-23T05:59:59;13.70;;;10.80;;
68509;SDS011;55512;50.102;19.958;2022-07-23T06:02:24;15.10;;;10.80;;
68509;SDS011;55512;50.102;19.958;2022-07-23T06:04:50;15.10;;;10.70;;
68509;SDS011;55512;50.102;19.958;2022-07-23T06:07:15;15.40;;;10.90;;
68509;SDS011;55512;50.102;19.958;2022-07-23T06:09:41;16.70;;;10.90;;
68509;SDS011;55512;50.102;19.958;2022-07-23T06:12:07;15.90;;;10.60;;
68509;SDS011;55512;50.102;19.958;2022-07-23T06:14:33;16.20;;;10.90;;
68509;SDS011;55512;50.102;19.958;2022-07-23T06:16:58;18.20;;;10.80;;
68509;SDS011;55512;50.102;19.958;2022-07-23T06:19:25;15.40;;;11.50;;
68509;SDS011;55512;50.102;19.958;2022-07-23T06:21:51;15.10;;;10.80;;
68509;SDS011;55512;50.102;19.958;2022-07-23T06:24:17;14.10;;;11.20;;
68509;SDS011;55512;50.102;19.958;2022-07-23T06:26:42;14.20;;;11.30;;
68509;SDS011;55512;50.102;19.958;2022-07-23T06:29:08;16.90;;;11.50;;
68509;SDS011;55512;50.102;19.958;2022-07-23T06:31:34;17.10;;;11.50;;
68509;SDS011;55512;50.102;19.958;2022-07-23T06:34:00;15.40;;;11.50;;
68509;SDS011;55512;50.102;19.958;2022-07-23T06:36:25;19.70;;;12.20;;
68509;SDS011;55512;50.102;19.958;2022-07-23T06:38:51;18.50;;;12.70;;
68509;SDS011;55512;50.102;19.958;2022-07-23T06:41:16;17.20;;;10.80;;
68509;SDS011;55512;50.102;19.958;2022-07-23T06:43:41;15.20;;;11.60;;
68509;SDS011;55512;50.102;19.958;2022-07-23T06:46:07;16.60;;;12.10;;
68509;SDS011;55512;50.102;19.958;2022-07-23T06:48:33;15.70;;;11.00;;
68509;SDS011;55512;50.102;19.958;2022-07-23T06:51:01;16.70;;;11.40;;
68509;SDS011;55512;50.102;19.958;2022-07-23T06:53:27;15.10;;;12.10;;
68509;SDS011;55512;50.102;19.958;2022-07-23T06:55:52;15.60;;;11.70;;
68509;SDS011;55512;50.102;19.958;2022-07-23T06:58:18;14.10;;;11.40;;
68509;SDS011;55512;50.102;19.958;2022-07-23T07:00:44;14.30;;;12.10;;
68509;SDS011;55512;50.102;19.958;2022-07-23T07:03:10;13.90;;;11.60;;
68509;SDS011;55512;50.102;19.958;2022-07-23T07:05:35;14.60;;;11.60;;
68509;SDS011;55512;50.102;19.958;2022-07-23T07:08:01;14.20;;;11.40;;
68509;SDS011;55512;50.102;19.958;2022-07-23T07:10:26;14.10;;;11.00;;
68509;SDS011;55512;50.102;19.958;2022-07-23T07:12:52;15.00;;;10.70;;
68509;SDS011;55512;50.102;19.958;2022-07-23T07:15:17;15.40;;;11.30;;
68509;SDS011;55512;50.102;19.958;2022-07-23T07:17:43;14.20;;;11.00;;
68509;SDS011;55512;50.102;19.958;2022-07-23T07:20:09;15.90;;;12.00;;
68509;SDS011;55512;50.102;19.958;2022-07-23T07:22:38;12.80;;;10.80;;
68509;SDS011;55512;50.102;19.958;2022-07-23T07:25:05;13.80;;;11.40;;
68509;SDS011;55512;50.102;19.958;2022-07-23T07:27:31;17.00;;;11.10;;
68509;SDS011;55512;50.102;19.958;2022-07-23T07:29:57;14.90;;;11.40;;
68509;SDS011;55512;50.102;19.958;2022-07-23T07:32:22;14.60;;;12.20;;
68509;SDS011;55512;50.102;19.958;2022-07-23T07:34:48;15.80;;;11.20;;
68509;SDS011;55512;50.102;19.958;2022-07-23T07:37:14;14.60;;;11.40;;
68509;SDS011;55512;50.102;19.958;2022-07-23T07:39:40;14.40;;;11.20;;
68509;SDS011;55512;50.102;19.958;2022-07-23T07:42:05;14.00;;;11.10;;
68509;SDS011;55512;50.102;19.958;2022-07-23T07:44:31;13.30;;;11.20;;
68509;SDS011;55512;50.102;19.958;2022-07-23T07:46:56;13.40;;;10.90;;
68509;SDS011;55512;50.102;19.958;2022-07-23T07:49:22;14.00;;;11.30;;
68509;SDS011;55512;50.102;19.958;2022-07-23T07:51:47;13.90;;;11.20;;
68509;SDS011;55512;50.102;19.958;2022-07-23T07:54:13;13.60;;;10.80;;
68509;SDS011;55512;50.102;19.958;2022-07-23T07:56:38;13.30;;;10.60;;
68509;SDS011;55512;50.102;19.958;2022-07-23T07:59:04;13.80;;;10.80;;
68509;SDS011;55512;50.102;19.958;2022-07-23T08:01:29;13.40;;;10.50;;
68509;SDS011;55512;50.102;19.958;2022-07-23T08:03:55;12.70;;;11.00;;
68509;SDS011;55512;50.102;19.958;2022-07-23T08:06:20;13.70;;;10.20;;
68509;SDS011;55512;50.102;19.958;2022-07-23T08:08:46;13.80;;;10.80;;
68509;SDS011;55512;50.102;19.958;2022-07-23T08:11:11;12.00;;;9.90;;
68509;SDS011;55512;50.102;19.958;2022-07-23T08:13:37;12.20;;;9.10;;
68509;SDS011;55512;50.102;19.958;2022-07-23T08:16:02;11.60;;;9.90;;
68509;SDS011;55512;50.102;19.958;2022-07-23T08:18:28;12.10;;;9.30;;
68509;SDS011;55512;50.102;19.958;2022-07-23T08:20:54;12.40;;;10.10;;
68509;SDS011;55512;50.102;19.958;2022-07-23T08:23:20;13.20;;;9.60;;
68509;SDS011;55512;50.102;19.958;2022-07-23T08:25:46;12.20;;;9.00;;
68509;SDS011;55512;50.102;19.958;2022-07-23T08:28:13;12.40;;;9.90;;
68509;SDS011;55512;50.102;19.958;2022-07-23T08:30:41;11.60;;;9.40;;
68509;SDS011;55512;50.102;19.958;2022-07-23T08:33:13;11.30;;;9.40;;
68509;SDS011;55512;50.102;19.958;2022-07-23T08:35:47;11.90;;;9.60;;
68509;SDS011;55512;50.102;19.958;2022-07-23T08:38:17;11.70;;;9.80;;
68509;SDS011;55512;50.102;19.958;2022-07-23T08:40:45;11.30;;;9.60;;
68509;SDS011;55512;50.102;19.958;2022-07-23T08:43:15;15.30;;;9.60;;
68509;SDS011;55512;50.102;19.958;2022-07-23T08:45:45;15.70;;;10.00;;
68509;SDS011;55512;50.102;19.958;2022-07-23T08:48:14;11.20;;;9.60;;
68509;SDS011;55512;50.102;19.958;2022-07-23T08:50:44;12.00;;;10.30;;
68509;SDS011;55512;50.102;19.958;2022-07-23T08:53:12;11.50;;;9.30;;
68509;SDS011;55512;50.102;19.958;2022-07-23T08:55:38;11.10;;;9.50;;
68509;SDS011;55512;50.102;19.958;2022-07-23T08:58:04;10.90;;;8.90;;
68509;SDS011;55512;50.102;19.958;2022-07-23T09:00:30;12.80;;;9.70;;
68509;SDS011;55512;50.102;19.958;2022-07-23T09:02:55;10.80;;;9.20;;
68509;SDS011;55512;50.102;19.958;2022-07-23T09:05:21;12.90;;;9.60;;
68509;SDS011;55512;50.102;19.958;2022-07-23T09:08:13;10.70;;;8.90;;
68509;SDS011;55512;50.102;19.958;2022-07-23T09:10:53;11.10;;;9.40;;
68509;SDS011;55512;50.102;19.958;2022-07-23T09:13:34;12.60;;;9.30;;
68509;SDS011;55512;50.102;19.958;2022-07-23T09:16:29;12.60;;;9.80;;
68509;SDS011;55512;50.102;19.958;2022-07-23T09:18:58;11.90;;;9.40;;
68509;SDS011;55512;50.102;19.958;2022-07-23T09:21:39;12.30;;;9.40;;
68509;SDS011;55512;50.102;19.958;2022-07-23T09:24:08;11.40;;;8.90;;
68509;SDS011;55512;50.102;19.958;2022-07-23T09:29:07;10.60;;;8.70;;
68509;SDS011;55512;50.102;19.958;2022-07-23T09:37:15;10.50;;;8.40;;
68509;SDS011;55512;50.102;19.958;2022-07-23T09:39:44;11.40;;;8.60;;
68509;SDS011;55512;50.102;19.958;2022-07-23T09:42:20;11.60;;;8.60;;
68509;SDS011;55512;50.102;19.958;2022-07-23T09:44:49;10.60;;;7.90;;
68509;SDS011;55512;50.102;19.958;2022-07-23T09:47:17;9.10;;;7.60;;
68509;SDS011;55512;50.102;19.958;2022-07-23T09:52:30;16.10;;;8.40;;
68509;SDS011;55512;50.102;19.958;2022-07-23T09:55:01;10.40;;;7.90;;
68509;SDS011;55512;50.102;19.958;2022-07-23T09:57:29;10.60;;;8.50;;
68509;SDS011;55512;50.102;19.958;2022-07-23T10:00:00;10.40;;;7.60;;
68509;SDS011;55512;50.102;19.958;2022-07-23T10:02:28;12.10;;;8.80;;
68509;SDS011;55512;50.102;19.958;2022-07-23T10:04:57;10.40;;;9.00;;
68509;SDS011;55512;50.102;19.958;2022-07-23T10:07:26;10.00;;;8.80;;
68509;SDS011;55512;50.102;19.958;2022-07-23T10:09:55;11.80;;;8.90;;
68509;SDS011;55512;50.102;19.958;2022-07-23T10:12:22;11.70;;;9.10;;
68509;SDS011;55512;50.102;19.958;2022-07-23T10:14:56;12.90;;;9.30;;
68509;SDS011;55512;50.102;19.958;2022-07-23T10:17:22;11.50;;;9.20;;
68509;SDS011;55512;50.102;19.958;2022-07-23T10:19:48;11.40;;;8.90;;
68509;SDS011;55512;50.102;19.958;2022-07-23T10:22:20;10.80;;;8.90;;
68509;SDS011;55512;50.102;19.958;2022-07-23T10:27:44;10.20;;;8.30;;
68509;SDS011;55512;50.102;19.958;2022-07-23T10:33:20;10.30;;;8.40;;
68509;SDS011;55512;50.102;19.958;2022-07-23T10:36:20;12.00;;;9.20;;
68509;SDS011;55512;50.102;19.958;2022-07-23T10:38:58;10.00;;;8.30;;
68509;SDS011;55512;50.102;19.958;2022-07-23T10:41:39;8.80;;;7.40;;
68509;SDS011;55512;50.102;19.958;2022-07-23T10:44:16;9.90;;;7.10;;
68509;SDS011;55512;50.102;19.958;2022-07-23T10:47:00;10.10;;;7.30;;
68509;SDS011;55512;50.102;19.958;2022-07-23T10:49:47;10.40;;;7.40;;
68509;SDS011;55512;50.102;19.958;2022-07-23T10:52:25;10.20;;;8.20;;
68509;SDS011;55512;50.102;19.958;2022-07-23T10:57:49;9.50;;;7.10;;
68509;SDS011;55512;50.102;19.958;2022-07-23T11:00:23;10.40;;;7.40;;
68509;SDS011;55512;50.102;19.958;2022-07-23T11:03:01;8.60;;;7.10;;
68509;SDS011;55512;50.102;19.958;2022-07-23T11:05:45;10.20;;;7.50;;
68509;SDS011;55512;50.102;19.958;2022-07-23T11:08:16;8.90;;;7.40;;
68509;SDS011;55512;50.102;19.958;2022-07-23T11:24:10;9.90;;;7.40;;
68509;SDS011;55512;50.102;19.958;2022-07-23T11:34:31;9.20;;;7.40;;
68509;SDS011;55512;50.102;19.958;2022-07-23T11:37:00;9.20;;;7.30;;
68509;SDS011;55512;50.102;19.958;2022-07-23T11:39:29;10.10;;;7.10;;
68509;SDS011;55512;50.102;19.958;2022-07-23T11:41:56;8.70;;;7.80;;
68509;SDS011;55512;50.102;19.958;2022-07-23T11:44:26;9.80;;;7.00;;
68509;SDS011;55512;50.102;19.958;2022-07-23T11:46:59;8.20;;;6.90;;
68509;SDS011;55512;50.102;19.958;2022-07-23T11:49:26;9.00;;;7.00;;
68509;SDS011;55512;50.102;19.958;2022-07-23T11:52:11;8.40;;;6.90;;
68509;SDS011;55512;50.102;19.958;2022-07-23T11:54:53;8.60;;;7.00;;
68509;SDS011;55512;50.102;19.958;2022-07-23T11:57:25;9.60;;;7.50;;
68509;SDS011;55512;50.102;19.958;2022-07-23T12:00:04;9.30;;;7.00;;
68509;SDS011;55512;50.102;19.958;2022-07-23T12:02:46;9.20;;;7.40;;
68509;SDS011;55512;50.102;19.958;2022-07-23T12:05:24;8.30;;;7.40;;
68509;SDS011;55512;50.102;19.958;2022-07-23T12:07:53;9.30;;;6.70;;
68509;SDS011;55512;50.102;19.958;2022-07-23T12:10:21;8.60;;;7.40;;
68509;SDS011;55512;50.102;19.958;2022-07-23T12:12:55;9.40;;;7.30;;
68509;SDS011;55512;50.102;19.958;2022-07-23T12:15:31;9.70;;;7.30;;
68509;SDS011;55512;50.102;19.958;2022-07-23T12:18:02;9.00;;;7.30;;
68509;SDS011;55512;50.102;19.958;2022-07-23T12:20:31;8.40;;;7.50;;
68509;SDS011;55512;50.102;19.958;2022-07-23T12:23:00;8.90;;;7.30;;
68509;SDS011;55512;50.102;19.958;2022-07-23T12:25:31;9.60;;;7.30;;
68509;SDS011;55512;50.102;19.958;2022-07-23T12:28:09;8.90;;;6.70;;
68509;SDS011;55512;50.102;19.958;2022-07-23T12:30:39;10.30;;;6.80;;
68509;SDS011;55512;50.102;19.958;2022-07-23T12:33:09;8.10;;;6.80;;
68509;SDS011;55512;50.102;19.958;2022-07-23T12:35:39;8.30;;;6.50;;
68509;SDS011;55512;50.102;19.958;2022-07-23T12:38:09;9.70;;;7.10;;
68509;SDS011;55512;50.102;19.958;2022-07-23T12:40:54;9.90;;;7.00;;
68509;SDS011;55512;50.102;19.958;2022-07-23T12:43:39;9.50;;;7.30;;
68509;SDS011;55512;50.102;19.958;2022-07-23T12:46:11;9.30;;;6.70;;
68509;SDS011;55512;50.102;19.958;2022-07-23T12:51:22;8.40;;;7.10;;
68509;SDS011;55512;50.102;19.958;2022-07-23T12:54:07;9.70;;;6.90;;
68509;SDS011;55512;50.102;19.958;2022-07-23T12:56:37;9.50;;;7.10;;
68509;SDS011;55512;50.102;19.958;2022-07-23T13:01:35;9.40;;;7.10;;
68509;SDS011;55512;50.102;19.958;2022-07-23T13:04:09;8.90;;;6.70;;
68509;SDS011;55512;50.102;19.958;2022-07-23T13:06:56;9.30;;;7.10;;
68509;SDS011;55512;50.102;19.958;2022-07-23T13:09:25;9.90;;;7.40;;
68509;SDS011;55512;50.102;19.958;2022-07-23T13:11:55;9.10;;;7.00;;
68509;SDS011;55512;50.102;19.958;2022-07-23T13:14:22;8.20;;;6.90;;
68509;SDS011;55512;50.102;19.958;2022-07-23T13:16:50;9.20;;;7.10;;
68509;SDS011;55512;50.102;19.958;2022-07-23T13:19:18;9.30;;;6.90;;
68509;SDS011;55512;50.102;19.958;2022-07-23T13:21:45;8.50;;;7.00;;
68509;SDS011;55512;50.102;19.958;2022-07-23T13:24:12;8.60;;;7.00;;
68509;SDS011;55512;50.102;19.958;2022-07-23T13:26:38;9.10;;;7.30;;
68509;SDS011;55512;50.102;19.958;2022-07-23T13:29:05;10.60;;;7.60;;
68509;SDS011;55512;50.102;19.958;2022-07-23T13:31:31;9.10;;;7.30;;
68509;SDS011;55512;50.102;19.958;2022-07-23T13:33:56;8.30;;;6.60;;
68509;SDS011;55512;50.102;19.958;2022-07-23T13:36:22;8.20;;;6.80;;
68509;SDS011;55512;50.102;19.958;2022-07-23T13:38:47;8.40;;;7.00;;
68509;SDS011;55512;50.102;19.958;2022-07-23T13:41:13;8.90;;;7.20;;
68509;SDS011;55512;50.102;19.958;2022-07-23T13:43:41;8.30;;;7.20;;
68509;SDS011;55512;50.102;19.958;2022-07-23T13:46:07;8.20;;;7.10;;
68509;SDS011;55512;50.102;19.958;2022-07-23T13:48:32;9.20;;;7.50;;
68509;SDS011;55512;50.102;19.958;2022-07-23T13:50:58;8.30;;;7.20;;
68509;SDS011;55512;50.102;19.958;2022-07-23T13:53:24;9.90;;;7.00;;
68509;SDS011;55512;50.102;19.958;2022-07-23T13:55:52;8.20;;;7.10;;
68509;SDS011;55512;50.102;19.958;2022-07-23T13:58:19;7.90;;;6.80;;
68509;SDS011;55512;50.102;19.958;2022-07-23T14:00:48;8.60;;;7.10;;
68509;SDS011;55512;50.102;19.958;2022-07-23T14:03:16;8.40;;;7.10;;
68509;SDS011;55512;50.102;19.958;2022-07-23T14:05:43;8.40;;;7.50;;
68509;SDS011;55512;50.102;19.958;2022-07-23T14:08:09;10.80;;;7.30;;
68509;SDS011;55512;50.102;19.958;2022-07-23T14:10:35;10.20;;;7.40;;
68509;SDS011;55512;50.102;19.958;2022-07-23T14:13:00;8.10;;;7.00;;
68509;SDS011;55512;50.102;19.958;2022-07-23T14:15:28;10.50;;;8.50;;
68509;SDS011;55512;50.102;19.958;2022-07-23T14:17:55;8.80;;;7.50;;
68509;SDS011;55512;50.102;19.958;2022-07-23T14:20:21;10.50;;;7.80;;
68509;SDS011;55512;50.102;19.958;2022-07-23T14:22:47;10.20;;;7.80;;
68509;SDS011;55512;50.102;19.958;2022-07-23T14:25:14;8.80;;;7.30;;
68509;SDS011;55512;50.102;19.958;2022-07-23T14:27:40;8.20;;;6.70;;
68509;SDS011;55512;50.102;19.958;2022-07-23T14:30:07;9.70;;;7.20;;
68509;SDS011;55512;50.102;19.958;2022-07-23T14:32:35;8.30;;;7.30;;
68509;SDS011;55512;50.102;19.958;2022-07-23T14:35:01;10.30;;;7.00;;
68509;SDS011;55512;50.102;19.958;2022-07-23T14:37:27;9.20;;;7.80;;
68509;SDS011;55512;50.102;19.958;2022-07-23T14:39:53;9.80;;;7.30;;
68509;SDS011;55512;50.102;19.958;2022-07-23T14:42:18;8.30;;;7.20;;
68509;SDS011;55512;50.102;19.958;2022-07-23T14:44:45;11.10;;;8.00;;
68509;SDS011;55512;50.102;19.958;2022-07-23T14:47:11;9.60;;;7.60;;
68509;SDS011;55512;50.102;19.958;2022-07-23T14:49:37;9.50;;;7.00;;
68509;SDS011;55512;50.102;19.958;2022-07-23T14:52:04;9.70;;;7.30;;
68509;SDS011;55512;50.102;19.958;2022-07-23T14:54:31;9.10;;;7.50;;
68509;SDS011;55512;50.102;19.958;2022-07-23T14:56:58;10.70;;;7.90;;
68509;SDS011;55512;50.102;19.958;2022-07-23T14:59:26;10.50;;;7.60;;
68509;SDS011;55512;50.102;19.958;2022-07-23T15:01:53;9.20;;;7.60;;
68509;SDS011;55512;50.102;19.958;2022-07-23T15:04:19;9.90;;;7.50;;
68509;SDS011;55512;50.102;19.958;2022-07-23T15:06:45;9.30;;;7.70;;
68509;SDS011;55512;50.102;19.958;2022-07-23T15:09:10;9.90;;;7.90;;
68509;SDS011;55512;50.102;19.958;2022-07-23T15:11:36;10.00;;;7.90;;